Time;durP1;ratioP1;P1;durP2;ratioP2;P2;SDS_P1;SDS_P2;PMS_P1;PMS_P2;Temp;Humidity;BMP_temperature;BMP_pressure;BME280_temperature;BME280_humidity;BME280_pressure;Samples;Min_cycle;Max_cycle;Signal;HPM_P1;HPM_P2
2022/01/18 00:01:29;;;;;;;3.93;2.60;;;8.10;99.90;;;;;;5097379;28;20841;-82
2022/01/18 00:04:00;;;;;;;3.13;2.67;;;8.10;99.90;;;;;;5103983;27;20498;-83
2022/01/18 00:06:28;;;;;;;6.83;3.60;;;8.10;99.90;;;;;;5103592;27;20523;-82
2022/01/18 00:08:56;;;;;;;2.77;2.37;;;8.00;99.90;;;;;;5106500;28;20449;-82
2022/01/18 00:11:29;;;;;;;3.27;2.80;;;8.10;99.90;;;;;;5103448;28;20450;-82
2022/01/18 00:14:02;;;;;;;4.03;2.20;;;8.10;99.90;;;;;;5102768;28;20453;-82
2022/01/18 00:16:37;;;;;;;2.50;2.13;;;8.10;99.90;;;;;;5103518;28;20492;-83
2022/01/18 00:19:09;;;;;;;4.67;2.07;;;8.10;99.90;;;;;;5101171;28;20462;-82
2022/01/18 00:21:52;;;;;;;4.80;2.50;;;8.10;99.90;;;;;;5107108;28;20477;-82
2022/01/18 00:24:20;;;;;;;2.57;2.17;;;8.10;99.90;;;;;;5103946;28;21056;-83
2022/01/18 00:26:50;;;;;;;2.43;2.20;;;8.00;99.90;;;;;;5100171;28;20452;-83
2022/01/18 00:29:22;;;;;;;3.20;2.27;;;8.00;99.90;;;;;;5101943;28;20636;-82
2022/01/18 00:32:06;;;;;;;6.23;2.83;;;7.90;99.90;;;;;;5101230;28;20475;-82
2022/01/18 00:34:37;;;;;;;3.40;2.70;;;7.90;99.90;;;;;;5100771;28;20971;-82
2022/01/18 00:37:25;;;;;;;3.77;2.57;;;7.90;99.90;;;;;;5105243;28;20458;-82
2022/01/18 00:39:54;;;;;;;3.13;2.03;;;7.90;99.90;;;;;;5104919;28;20457;-83
2022/01/18 00:42:24;;;;;;;3.80;2.80;;;7.90;99.90;;;;;;5104951;28;20547;-83
2022/01/18 00:44:52;;;;;;;4.43;2.47;;;7.90;99.90;;;;;;5106743;28;20489;-84
2022/01/18 00:47:21;;;;;;;2.13;1.93;;;8.00;99.90;;;;;;5102360;28;20485;-80
2022/01/18 00:49:57;;;;;;;3.93;2.30;;;8.00;99.90;;;;;;5101789;28;20460;-83
2022/01/18 00:52:27;;;;;;;2.87;2.60;;;8.00;99.90;;;;;;5112299;27;20459;-83
2022/01/18 00:54:56;;;;;;;3.30;2.20;;;8.10;99.90;;;;;;5103865;28;20975;-81
2022/01/18 00:57:25;;;;;;;5.93;2.40;;;8.00;99.90;;;;;;5105204;28;20491;-83
2022/01/18 00:59:54;;;;;;;5.63;3.10;;;8.00;99.90;;;;;;5101896;28;21000;-83
2022/01/18 01:02:22;;;;;;;4.60;2.80;;;8.00;99.90;;;;;;5104826;28;20567;-83
2022/01/18 01:04:51;;;;;;;4.33;2.40;;;8.00;99.90;;;;;;5099511;28;20481;-82
2022/01/18 01:07:22;;;;;;;4.70;2.07;;;8.00;99.90;;;;;;5102359;28;22455;-81
2022/01/18 01:09:51;;;;;;;3.87;2.40;;;8.00;99.90;;;;;;5105675;28;20467;-82
2022/01/18 01:12:25;;;;;;;4.33;2.70;;;8.10;99.90;;;;;;5107716;28;20541;-83
2022/01/18 01:15:02;;;;;;;4.20;2.40;;;8.10;99.90;;;;;;5095710;28;20478;-83
2022/01/18 01:17:40;;;;;;;2.63;2.03;;;8.10;99.90;;;;;;5100837;28;20460;-80
2022/01/18 01:34:30;;;;;;;3.20;2.40;;;8.00;99.90;;;;;;5108943;28;20448;-82
2022/01/18 01:45:28;;;;;;;6.20;2.60;;;7.90;1.00;;;;;;5098021;28;21530;-82
2022/01/18 01:48:00;;;;;;;3.87;2.27;;;7.90;1.00;;;;;;5101456;28;20453;-82
2022/01/18 01:50:40;;;;;;;5.60;2.57;;;7.90;1.00;;;;;;5102327;28;20456;-82
2022/01/18 01:53:09;;;;;;;3.20;2.50;;;7.90;1.00;;;;;;5107868;28;20433;-82
2022/01/18 01:55:38;;;;;;;5.43;3.40;;;7.90;1.00;;;;;;5111331;28;20480;-82
2022/01/18 01:58:07;;;;;;;6.80;3.87;;;7.90;1.00;;;;;;5107905;28;20811;-82
2022/01/18 02:00:41;;;;;;;6.67;3.90;;;7.90;1.00;;;;;;5107831;28;20713;-81
2022/01/18 02:03:11;;;;;;;3.17;2.87;;;7.90;1.00;;;;;;5106926;28;20471;-80
2022/01/18 02:05:41;;;;;;;8.27;3.90;;;7.90;1.00;;;;;;5106748;27;20611;-82
2022/01/18 02:08:09;;;;;;;5.67;3.23;;;7.90;1.00;;;;;;5105573;28;20430;-82
2022/01/18 02:10:39;;;;;;;7.57;2.67;;;7.90;1.00;;;;;;5106751;27;20474;-81
2022/01/18 02:13:11;;;;;;;3.70;2.23;;;7.90;1.00;;;;;;5105852;28;20450;-82
2022/01/18 02:15:45;;;;;;;6.80;3.60;;;7.90;1.00;;;;;;5108977;28;20501;-84
2022/01/18 02:24:04;;;;;;;5.67;3.20;;;7.80;1.00;;;;;;5100041;28;20450;-82
2022/01/18 02:26:33;;;;;;;3.67;3.00;;;7.90;1.00;;;;;;5103127;28;20456;-83
2022/01/18 02:29:01;;;;;;;4.60;2.40;;;7.90;1.00;;;;;;5106891;27;20525;-83
2022/01/18 02:31:30;;;;;;;4.70;3.50;;;7.90;1.00;;;;;;5103898;27;20452;-83
2022/01/18 02:34:03;;;;;;;6.30;3.60;;;7.90;1.00;;;;;;5104134;28;20464;-83
2022/01/18 02:36:34;;;;;;;3.43;2.40;;;7.90;1.00;;;;;;5102082;28;20488;-83
2022/01/18 02:39:03;;;;;;;3.50;2.53;;;7.90;1.00;;;;;;5102371;28;20465;-84
2022/01/18 02:41:32;;;;;;;6.30;4.10;;;7.90;1.00;;;;;;5104062;28;21031;-84
2022/01/18 02:44:03;;;;;;;5.37;2.80;;;7.90;1.00;;;;;;5099182;28;20507;-82
2022/01/18 02:46:31;;;;;;;4.27;3.67;;;7.90;1.00;;;;;;5103129;28;20476;-83
2022/01/18 02:49:01;;;;;;;4.43;3.40;;;7.90;1.00;;;;;;5101142;28;20446;-83
2022/01/18 02:51:29;;;;;;;6.00;4.10;;;7.90;1.00;;;;;;5122651;27;20449;-83
2022/01/18 02:54:01;;;;;;;8.63;4.33;;;7.90;1.00;;;;;;5103610;28;20864;-83
2022/01/18 02:56:33;;;;;;;4.97;3.80;;;7.90;1.00;;;;;;5109206;28;21002;-84
2022/01/18 02:59:18;;;;;;;6.83;4.40;;;8.10;1.00;;;;;;5108497;28;20534;-84
2022/01/18 03:04:38;;;;;;;7.70;4.27;;;7.90;1.00;;;;;;5105313;28;20473;-84
2022/01/18 03:07:07;;;;;;;3.90;3.10;;;7.90;1.00;;;;;;5109626;28;20469;-83
2022/01/18 03:09:37;;;;;;;7.33;4.03;;;7.90;1.00;;;;;;5107350;28;20457;-84
2022/01/18 03:12:07;;;;;;;4.30;3.70;;;7.90;1.00;;;;;;5109880;28;20524;-83
2022/01/18 03:14:35;;;;;;;8.90;4.13;;;7.90;1.00;;;;;;5108677;28;20466;-83
2022/01/18 03:17:04;;;;;;;7.53;4.10;;;7.90;1.00;;;;;;5106624;28;20462;-82
2022/01/18 03:19:32;;;;;;;5.77;3.13;;;7.90;1.00;;;;;;5106974;28;20457;-82
2022/01/18 03:22:01;;;;;;;5.67;3.17;;;7.90;1.00;;;;;;5107326;28;20475;-82
2022/01/18 03:24:45;;;;;;;6.17;4.53;;;7.90;1.00;;;;;;5106608;28;20469;-82
2022/01/18 03:30:04;;;;;;;7.47;3.63;;;7.90;1.00;;;;;;5109425;28;20968;-82
2022/01/18 03:32:33;;;;;;;9.60;3.80;;;7.90;1.00;;;;;;5103964;28;20974;-82
2022/01/18 03:35:02;;;;;;;10.37;4.70;;;7.90;1.00;;;;;;5106625;27;20507;-82
2022/01/18 03:37:31;;;;;;;7.60;5.13;;;7.90;1.00;;;;;;5102630;28;20443;-81
2022/01/18 03:39:59;;;;;;;5.50;4.13;;;7.90;1.00;;;;;;5097890;28;20456;-82
2022/01/18 03:42:41;;;;;;;7.30;4.10;;;7.90;1.00;;;;;;5106374;28;20595;-82
2022/01/18 03:45:13;;;;;;;11.03;4.60;;;7.90;1.00;;;;;;5098550;28;20486;-82
2022/01/18 03:47:44;;;;;;;6.87;4.90;;;7.90;1.00;;;;;;5105426;28;20515;-82
2022/01/18 03:50:15;;;;;;;9.93;5.10;;;7.90;1.00;;;;;;5106323;28;20566;-83
2022/01/18 03:52:45;;;;;;;9.50;4.80;;;7.90;1.00;;;;;;5105423;28;20976;-83
2022/01/18 03:55:17;;;;;;;8.90;4.70;;;7.90;1.00;;;;;;5108615;28;20452;-83
2022/01/18 03:57:47;;;;;;;6.20;4.80;;;7.90;1.00;;;;;;5105631;28;20901;-83
2022/01/18 04:00:19;;;;;;;7.43;5.00;;;7.90;1.00;;;;;;5107049;28;20545;-83
2022/01/18 04:02:48;;;;;;;7.67;4.83;;;7.90;1.00;;;;;;5102380;28;20526;-84
2022/01/18 04:05:17;;;;;;;9.90;5.43;;;7.90;1.00;;;;;;5107481;28;20475;-83
2022/01/18 04:07:46;;;;;;;7.10;4.10;;;7.90;1.00;;;;;;5099564;27;20507;-83
2022/01/18 04:10:15;;;;;;;8.70;5.07;;;7.90;1.00;;;;;;5105108;28;20462;-84
2022/01/18 04:12:43;;;;;;;8.47;6.43;;;7.90;1.00;;;;;;5107591;28;20486;-83
2022/01/18 04:15:15;;;;;;;13.07;6.10;;;7.90;1.00;;;;;;5106816;28;20477;-83
2022/01/18 04:18:04;;;;;;;12.23;6.33;;;7.90;1.00;;;;;;5115430;27;20828;-83
2022/01/18 04:26:52;;;;;;;8.50;4.77;;;7.90;1.00;;;;;;5105088;28;20482;-83
2022/01/18 04:28:54;;;;;;;8.53;4.40;;;7.90;9.60;;;;;;5103385;28;20449;-84
2022/01/18 04:31:26;;;;;;;9.87;6.40;;;7.90;1.00;;;;;;5106429;28;20877;-84
2022/01/18 04:33:56;;;;;;;10.03;5.50;;;7.90;1.00;;;;;;5107274;28;20481;-83
2022/01/18 04:36:26;;;;;;;6.67;5.33;;;7.90;1.00;;;;;;5104375;28;20543;-84
2022/01/18 04:38:56;;;;;;;12.67;7.13;;;7.90;1.00;;;;;;5104189;28;20450;-84
2022/01/18 04:41:28;;;;;;;11.53;6.13;;;7.90;1.00;;;;;;5103985;28;20540;-84
2022/01/18 04:48:23;;;;;;;10.80;6.60;;;8.00;1.00;;;;;;5106281;28;20514;-85
2022/01/18 04:49:48;;;;;;;9.47;5.90;;;8.00;1.00;;;;;;5107521;28;20469;-83
2022/01/18 04:52:17;;;;;;;15.47;9.00;;;8.00;1.00;;;;;;5104000;28;20542;-84
2022/01/18 04:54:56;;;;;;;14.93;7.50;;;8.00;1.00;;;;;;5107574;28;20508;-82
2022/01/18 05:00:11;;;;;;;7.97;5.67;;;8.00;1.00;;;;;;5093333;28;20489;-82
2022/01/18 05:02:41;;;;;;;15.57;7.33;;;8.00;1.00;;;;;;5102023;28;20451;-81
2022/01/18 05:05:11;;;;;;;12.60;7.37;;;8.00;1.00;;;;;;5103650;28;20485;-82
2022/01/18 05:07:39;;;;;;;12.40;5.87;;;8.00;1.00;;;;;;5107826;28;20975;-83
2022/01/18 05:10:09;;;;;;;9.70;5.80;;;8.00;1.00;;;;;;5098397;28;20447;-83
2022/01/18 05:12:44;;;;;;;15.20;7.00;;;8.00;1.00;;;;;;5104613;28;20466;-82
2022/01/18 05:15:34;;;;;;;11.20;6.20;;;8.00;1.00;;;;;;5106358;28;20479;-81
2022/01/18 05:18:57;;;;;;;12.70;7.50;;;8.00;1.00;;;;;;5102032;28;20547;-82
2022/01/18 05:21:20;;;;;;;9.93;5.60;;;7.90;1.00;;;;;;5103724;28;20451;-82
2022/01/18 05:23:49;;;;;;;13.43;7.53;;;8.00;1.00;;;;;;5105592;28;20490;-83
2022/01/18 05:26:17;;;;;;;12.00;6.17;;;8.00;1.00;;;;;;5097168;28;20690;-82
2022/01/18 05:28:45;;;;;;;13.10;6.20;;;8.00;1.00;;;;;;5095793;28;20457;-82
2022/01/18 05:31:14;;;;;;;10.53;5.30;;;8.00;1.00;;;;;;5102546;28;20450;-82
2022/01/18 05:33:46;;;;;;;9.03;5.40;;;8.00;1.00;;;;;;5106924;28;20450;-82
2022/01/18 05:36:15;;;;;;;8.73;4.83;;;8.00;1.00;;;;;;5100267;28;20463;-82
2022/01/18 05:38:43;;;;;;;8.47;5.03;;;8.00;1.00;;;;;;5104822;28;20458;-81
2022/01/18 05:41:12;;;;;;;9.80;5.70;;;8.00;1.00;;;;;;5106648;28;20796;-82
2022/01/18 05:43:41;;;;;;;9.23;5.67;;;8.00;1.00;;;;;;5104026;28;20810;-82
2022/01/18 05:46:09;;;;;;;13.77;7.20;;;8.00;1.00;;;;;;5106924;28;21066;-82
2022/01/18 05:48:38;;;;;;;11.87;6.60;;;8.00;1.00;;;;;;5094472;28;20552;-81
2022/01/18 05:51:08;;;;;;;11.17;7.23;;;8.00;1.00;;;;;;5103788;28;20462;-81
2022/01/18 05:53:39;;;;;;;14.57;5.80;;;8.00;1.00;;;;;;5097053;28;20451;-80
2022/01/18 05:56:11;;;;;;;15.63;6.53;;;8.00;1.00;;;;;;5104161;28;20489;-81
2022/01/18 05:58:41;;;;;;;8.90;7.17;;;8.20;1.00;;;;;;5103199;28;20517;-80
2022/01/18 06:01:09;;;;;;;12.53;6.83;;;8.00;1.00;;;;;;5104488;28;20446;-81
2022/01/18 06:03:51;;;;;;;15.30;5.40;;;8.00;1.00;;;;;;5102582;28;20467;-81
2022/01/18 06:09:06;;;;;;;16.73;8.20;;;8.00;1.00;;;;;;5102437;28;20710;-80
2022/01/18 06:11:35;;;;;;;17.23;8.20;;;8.00;1.00;;;;;;5108399;28;20732;-81
2022/01/18 06:14:03;;;;;;;9.53;6.57;;;8.00;1.00;;;;;;5108054;27;20449;-81
2022/01/18 06:16:32;;;;;;;12.63;6.20;;;8.00;1.00;;;;;;5105070;28;20586;-80
2022/01/18 06:19:00;;;;;;;11.03;6.87;;;7.90;1.00;;;;;;5100366;28;20537;-81
2022/01/18 06:21:30;;;;;;;12.00;7.00;;;8.00;1.00;;;;;;5103019;28;20450;-80
2022/01/18 06:23:58;;;;;;;14.33;7.10;;;8.00;1.00;;;;;;5105471;27;20949;-80
2022/01/18 06:26:27;;;;;;;15.93;8.40;;;8.00;1.00;;;;;;5099162;27;21028;-80
2022/01/18 06:28:55;;;;;;;11.40;7.00;;;8.00;1.00;;;;;;5106504;28;20462;-80
2022/01/18 06:31:24;;;;;;;19.40;6.97;;;8.00;1.00;;;;;;5105402;28;20475;-80
2022/01/18 06:33:52;;;;;;;13.73;6.50;;;8.00;1.00;;;;;;5109214;28;20493;-80
2022/01/18 06:36:24;;;;;;;14.10;6.27;;;8.00;1.00;;;;;;5111481;28;21010;-80
2022/01/18 06:38:54;;;;;;;11.90;6.90;;;8.00;1.00;;;;;;5110713;28;20457;-79
2022/01/18 06:41:22;;;;;;;18.53;6.90;;;7.90;1.00;;;;;;5106973;28;20904;-80
2022/01/18 06:43:51;;;;;;;12.80;6.67;;;8.00;1.00;;;;;;5105259;28;20493;-80
2022/01/18 06:46:19;;;;;;;10.43;6.37;;;8.00;1.00;;;;;;5102466;28;20554;-80
2022/01/18 06:48:48;;;;;;;10.23;5.67;;;8.00;1.00;;;;;;5098411;28;20475;-80
2022/01/18 06:51:17;;;;;;;9.10;5.77;;;8.00;1.00;;;;;;5112783;27;20473;-80
2022/01/18 06:53:47;;;;;;;11.80;7.63;;;7.90;1.00;;;;;;5111325;28;20802;-80
2022/01/18 06:56:20;;;;;;;13.93;8.05;;;7.90;1.00;;;;;;5114303;27;20458;-81
2022/01/18 06:58:48;;;;;;;14.70;7.73;;;7.90;1.00;;;;;;5097832;28;20213;-80
2022/01/18 07:01:17;;;;;;;13.70;7.70;;;7.90;1.00;;;;;;5095187;28;20493;-80
2022/01/18 07:03:47;;;;;;;14.53;7.00;;;7.90;1.00;;;;;;5102085;28;20512;-80
2022/01/18 07:06:15;;;;;;;10.00;7.13;;;7.90;1.00;;;;;;5101159;28;21033;-80
2022/01/18 07:08:44;;;;;;;12.93;6.80;;;7.90;1.00;;;;;;5104283;28;20462;-81
2022/01/18 07:11:12;;;;;;;10.47;5.93;;;7.90;1.00;;;;;;5102659;28;20454;-81
2022/01/18 07:13:42;;;;;;;9.23;5.37;;;7.80;1.00;;;;;;5111336;28;20779;-81
2022/01/18 07:16:10;;;;;;;13.50;5.90;;;7.80;1.00;;;;;;5102436;28;20478;-81
2022/01/18 07:18:39;;;;;;;14.30;7.93;;;7.80;1.00;;;;;;5108012;27;20461;-81
2022/01/18 07:21:09;;;;;;;11.30;6.37;;;7.90;1.00;;;;;;5102368;28;20546;-81
2022/01/18 07:23:37;;;;;;;9.90;6.50;;;7.90;1.00;;;;;;5104339;27;20460;-81
2022/01/18 07:26:10;;;;;;;13.37;5.33;;;7.80;1.00;;;;;;5107938;27;20979;-81
2022/01/18 07:28:39;;;;;;;9.60;4.53;;;7.80;1.00;;;;;;5108462;28;20475;-81
2022/01/18 07:31:09;;;;;;;12.30;6.20;;;7.80;1.00;;;;;;5105776;27;20462;-81
2022/01/18 07:33:39;;;;;;;11.20;6.00;;;7.70;1.00;;;;;;5107391;28;20455;-80
2022/01/18 07:36:08;;;;;;;10.20;6.10;;;7.70;1.00;;;;;;5109143;28;20544;-81
2022/01/18 07:38:36;;;;;;;15.00;7.07;;;7.70;1.00;;;;;;5106837;28;20460;-81
2022/01/18 07:41:05;;;;;;;11.07;5.50;;;7.70;1.00;;;;;;5109608;28;20438;-81
2022/01/18 07:43:34;;;;;;;12.10;5.73;;;7.70;1.00;;;;;;5099542;28;20964;-81
2022/01/18 07:46:03;;;;;;;12.43;5.80;;;7.70;1.00;;;;;;5107845;28;20493;-81
2022/01/18 07:48:33;;;;;;;12.02;6.28;;;7.70;1.00;;;;;;5105044;28;20434;-80
2022/01/18 07:51:01;;;;;;;11.33;5.47;;;7.70;1.00;;;;;;5106199;28;20219;-81
2022/01/18 07:53:30;;;;;;;9.37;4.77;;;7.70;1.00;;;;;;5108958;28;20458;-81
2022/01/18 07:55:58;;;;;;;11.40;5.60;;;7.70;1.00;;;;;;5105016;27;21166;-81
2022/01/18 07:58:27;;;;;;;8.63;5.20;;;7.70;1.00;;;;;;5106951;28;20864;-80
2022/01/18 08:00:57;;;;;;;9.43;4.43;;;7.70;1.00;;;;;;5105999;28;20900;-81
2022/01/18 08:03:27;;;;;;;11.17;6.10;;;7.70;1.00;;;;;;5109623;27;21051;-82
2022/01/18 08:05:57;;;;;;;11.90;6.73;;;7.70;1.00;;;;;;5099151;28;20720;-81
2022/01/18 08:08:26;;;;;;;8.33;5.70;;;7.80;1.00;;;;;;5105316;28;20472;-81
2022/01/18 08:10:55;;;;;;;9.90;5.57;;;7.80;1.00;;;;;;5100245;27;20811;-81
2022/01/18 08:13:28;;;;;;;10.63;5.63;;;7.80;1.00;;;;;;5104087;28;20489;-81
2022/01/18 08:16:10;;;;;;;12.47;6.10;;;7.80;1.00;;;;;;5107924;28;20475;-82
2022/01/18 08:18:38;;;;;;;7.33;4.73;;;7.90;1.00;;;;;;5104089;27;20453;-81
2022/01/18 08:21:08;;;;;;;8.97;5.17;;;7.90;1.00;;;;;;5104591;28;20773;-81
2022/01/18 08:23:36;;;;;;;8.50;4.93;;;7.90;1.00;;;;;;5099447;27;20465;-81
2022/01/18 08:26:05;;;;;;;7.13;4.77;;;8.00;1.00;;;;;;5107626;28;21201;-81
2022/01/18 08:28:33;;;;;;;14.20;7.13;;;8.10;1.00;;;;;;5107645;28;20458;-81
2022/01/18 08:31:03;;;;;;;12.20;5.87;;;8.10;1.00;;;;;;5108139;28;20462;-81
2022/01/18 08:33:32;;;;;;;9.93;5.00;;;8.10;1.00;;;;;;5104530;28;20454;-80
2022/01/18 08:36:06;;;;;;;8.33;5.30;;;8.20;1.00;;;;;;5103568;27;20903;-81
2022/01/18 08:38:37;;;;;;;13.03;5.87;;;8.20;1.00;;;;;;5104146;28;20430;-81
2022/01/18 08:41:06;;;;;;;10.20;5.43;;;8.30;1.00;;;;;;5107633;28;20503;-79
2022/01/18 08:43:37;;;;;;;8.83;5.03;;;8.30;1.00;;;;;;5110644;27;20457;-81
2022/01/18 08:46:06;;;;;;;12.87;6.07;;;8.40;1.00;;;;;;5100082;28;20491;-81
2022/01/18 08:48:36;;;;;;;9.90;5.10;;;8.40;1.00;;;;;;5107994;28;21020;-81
2022/01/18 08:51:05;;;;;;;9.97;5.57;;;8.40;1.00;;;;;;5108111;27;20910;-81
2022/01/18 08:53:33;;;;;;;9.33;5.00;;;8.50;1.00;;;;;;5104746;28;20459;-81
2022/01/18 08:56:04;;;;;;;9.63;5.47;;;8.50;1.00;;;;;;5110176;28;20470;-81
2022/01/18 08:58:33;;;;;;;10.80;6.07;;;8.50;99.90;;;;;;5107538;28;20466;-81
2022/01/18 09:01:02;;;;;;;10.60;5.40;;;8.60;1.00;;;;;;5097653;28;20462;-81
2022/01/18 09:03:31;;;;;;;9.73;5.03;;;8.60;99.90;;;;;;5100370;28;20474;-80
2022/01/18 09:06:00;;;;;;;13.67;6.57;;;8.60;1.00;;;;;;5109738;28;20476;-81
2022/01/18 09:08:28;;;;;;;12.87;6.33;;;8.70;1.00;;;;;;5105306;28;20514;-81
2022/01/18 09:10:57;;;;;;;10.60;6.23;;;8.80;1.00;;;;;;5108124;28;20818;-81
2022/01/18 09:13:28;;;;;;;12.30;6.50;;;8.80;99.90;;;;;;5100144;28;20470;-81
2022/01/18 09:15:57;;;;;;;8.87;6.20;;;8.90;99.90;;;;;;5103360;28;20558;-81
2022/01/18 09:18:25;;;;;;;9.50;5.57;;;8.90;99.90;;;;;;5103079;28;20480;-81
2022/01/18 09:20:54;;;;;;;8.00;5.63;;;8.90;99.90;;;;;;5104021;28;20465;-81
2022/01/18 09:23:22;;;;;;;11.90;6.10;;;9.00;99.90;;;;;;5100776;28;20532;-81
2022/01/18 09:25:51;;;;;;;9.67;4.93;;;9.00;99.90;;;;;;5103572;28;20520;-81
2022/01/18 09:28:19;;;;;;;12.63;6.67;;;9.00;99.90;;;;;;5108161;28;20491;-81
2022/01/18 09:30:49;;;;;;;7.87;5.73;;;9.00;99.90;;;;;;5105886;28;20476;-80
2022/01/18 09:33:17;;;;;;;9.30;5.40;;;8.60;99.90;;;;;;5103631;28;20550;-81
2022/01/18 09:35:46;;;;;;;8.37;5.20;;;9.00;99.90;;;;;;5103150;28;21020;-81
2022/01/18 09:38:15;;;;;;;5.43;4.57;;;9.10;99.90;;;;;;5105580;28;20450;-81
2022/01/18 09:40:45;;;;;;;10.40;4.77;;;9.10;99.90;;;;;;5106730;28;20479;-81
2022/01/18 09:43:16;;;;;;;12.80;5.43;;;9.10;99.90;;;;;;5108369;28;20456;-81
2022/01/18 09:45:46;;;;;;;8.30;4.43;;;9.20;99.90;;;;;;5106882;28;20475;-81
2022/01/18 09:48:16;;;;;;;4.87;3.30;;;9.30;99.90;;;;;;5094788;27;20467;-81
2022/01/18 09:50:49;;;;;;;5.37;2.87;;;9.40;99.90;;;;;;5106041;27;20462;-80
2022/01/18 09:53:18;;;;;;;11.60;3.73;;;9.50;99.90;;;;;;5108832;28;20508;-81
2022/01/18 09:55:48;;;;;;;6.40;3.73;;;9.80;99.90;;;;;;5112565;28;20496;-82
2022/01/18 09:58:17;;;;;;;4.80;3.70;;;10.10;99.90;;;;;;5099902;27;20435;-82
2022/01/18 10:00:46;;;;;;;5.23;2.60;;;10.40;99.90;;;;;;5099155;27;20198;-81
2022/01/18 10:03:33;;;;;;;4.80;2.50;;;10.80;99.90;;;;;;5118809;27;20458;-81
2022/01/18 10:06:03;;;;;;;5.13;2.70;;;11.00;99.90;;;;;;5103202;28;20480;-81
2022/01/18 10:08:35;;;;;;;2.93;2.63;;;10.90;99.90;;;;;;5107421;28;20456;-81
2022/01/18 10:11:14;;;;;;;3.80;2.10;;;10.80;99.90;;;;;;5121307;27;20807;-81
2022/01/18 10:13:44;;;;;;;5.30;2.60;;;10.90;99.90;;;;;;5104816;27;21011;-79
2022/01/18 10:16:14;;;;;;;4.10;2.73;;;11.10;99.90;;;;;;5098647;28;20222;-80
2022/01/18 10:18:47;;;;;;;4.07;2.10;;;11.30;99.90;;;;;;5103309;27;20472;-80
2022/01/18 10:21:28;;;;;;;4.30;2.90;;;11.40;99.90;;;;;;5109522;28;20459;-80
2022/01/18 10:24:12;;;;;;;3.63;2.77;;;11.40;99.90;;;;;;5107400;28;20821;-80
2022/01/18 10:26:42;;;;;;;5.10;3.00;;;11.50;99.90;;;;;;5096215;28;20508;-80
2022/01/18 10:29:12;;;;;;;5.67;3.20;;;11.50;99.90;;;;;;5103779;28;20483;-81
2022/01/18 10:31:54;;;;;;;7.10;3.17;;;11.40;99.90;;;;;;5106019;28;21017;-80
2022/01/18 10:34:39;;;;;;;6.80;3.77;;;11.30;99.90;;;;;;5103497;28;20468;-80
2022/01/18 10:37:11;;;;;;;5.53;3.47;;;11.10;99.90;;;;;;5111943;27;20456;-80
2022/01/18 10:39:41;;;;;;;5.33;3.50;;;10.90;99.90;;;;;;5104696;27;20499;-80
2022/01/18 10:42:18;;;;;;;8.88;4.20;;;10.90;99.90;;;;;;5098808;28;20443;-82
2022/01/18 10:44:48;;;;;;;8.67;4.70;;;10.80;99.90;;;;;;5100201;27;20310;-82
2022/01/18 10:47:18;;;;;;;7.60;4.33;;;10.80;99.90;;;;;;5098057;27;20523;-81
2022/01/18 10:49:48;;;;;;;5.63;3.57;;;11.20;99.90;;;;;;5100735;28;20457;-81
2022/01/18 10:52:20;;;;;;;7.07;3.97;;;11.50;99.90;;;;;;5101310;28;20491;-82
2022/01/18 10:54:51;;;;;;;6.60;3.30;;;11.90;99.90;;;;;;5100544;28;21049;-82
2022/01/18 10:57:22;;;;;;;6.67;2.83;;;12.30;99.90;;;;;;5102391;27;20800;-78
2022/01/18 10:59:55;;;;;;;5.95;3.53;;;12.60;99.90;;;;;;5097542;28;20868;-80
2022/01/18 11:02:24;;;;;;;5.10;2.83;;;12.90;99.90;;;;;;5102054;28;20206;-82
2022/01/18 11:04:56;;;;;;;2.07;1.87;;;13.10;99.90;;;;;;5120829;27;20563;-82
2022/01/18 11:07:26;;;;;;;3.30;2.07;;;13.10;99.90;;;;;;5111243;28;20472;-81
2022/01/18 11:10:03;;;;;;;4.30;1.73;;;13.10;99.90;;;;;;5104815;28;20459;-82
2022/01/18 11:12:42;;;;;;;4.03;1.53;;;13.00;99.90;;;;;;5098395;28;20815;-82
2022/01/18 11:15:16;;;;;;;4.80;2.20;;;12.90;99.90;;;;;;5108674;28;20543;-82
2022/01/18 11:17:50;;;;;;;4.43;2.40;;;12.70;99.90;;;;;;5103167;27;20501;-82
2022/01/18 11:20:21;;;;;;;2.90;1.90;;;12.40;99.90;;;;;;5107030;28;20455;-82
2022/01/18 11:22:51;;;;;;;2.93;2.03;;;12.20;99.90;;;;;;5102256;28;20485;-83
2022/01/18 11:25:21;;;;;;;4.47;1.80;;;11.90;99.90;;;;;;5102101;28;20514;-82
2022/01/18 11:27:52;;;;;;;3.90;2.23;;;11.70;99.90;;;;;;5106685;28;20481;-82
2022/01/18 11:30:24;;;;;;;2.30;1.50;;;11.50;99.90;;;;;;5097158;28;20546;-82
2022/01/18 11:32:54;;;;;;;3.27;1.70;;;11.40;99.90;;;;;;5106357;27;21055;-82
2022/01/18 11:35:32;;;;;;;3.97;1.90;;;11.30;99.90;;;;;;5110111;28;20518;-82
2022/01/18 11:38:05;;;;;;;4.40;2.73;;;11.20;99.90;;;;;;5110202;28;20445;-81
2022/01/18 11:40:45;;;;;;;3.10;2.17;;;11.00;99.90;;;;;;5102030;27;20450;-81
2022/01/18 11:43:14;;;;;;;3.47;2.90;;;10.90;99.90;;;;;;5101948;28;20465;-79
2022/01/18 11:45:43;;;;;;;6.50;2.87;;;10.50;99.90;;;;;;5104445;28;20478;-81
2022/01/18 11:48:17;;;;;;;4.13;2.30;;;10.60;99.90;;;;;;5104218;28;20482;-80
2022/01/18 11:50:51;;;;;;;5.90;2.90;;;10.60;99.90;;;;;;5101519;27;20458;-81
2022/01/18 11:53:37;;;;;;;3.70;2.30;;;10.40;99.90;;;;;;5096079;27;20445;-80
2022/01/18 11:56:07;;;;;;;4.07;1.83;;;10.40;99.90;;;;;;5102003;27;20472;-81
2022/01/18 11:58:35;;;;;;;7.60;2.63;;;10.40;99.90;;;;;;5095831;27;20720;-82
2022/01/18 12:01:04;;;;;;;5.33;2.20;;;10.40;99.90;;;;;;5094547;27;20528;-81
2022/01/18 12:03:43;;;;;;;5.63;2.17;;;10.40;99.90;;;;;;5095587;28;20461;-82
2022/01/18 12:06:13;;;;;;;2.70;1.80;;;10.40;99.90;;;;;;5107599;27;20476;-82
2022/01/18 12:08:43;;;;;;;2.10;1.90;;;10.40;99.90;;;;;;5102354;28;20454;-81
2022/01/18 12:11:34;;;;;;;5.80;1.70;;;10.30;99.90;;;;;;5105213;27;20477;-82
2022/01/18 12:14:05;;;;;;;3.97;2.30;;;10.30;99.90;;;;;;5096851;28;21124;-81
2022/01/18 12:16:33;;;;;;;3.63;2.00;;;10.30;99.90;;;;;;5100995;27;21067;-81
2022/01/18 12:19:05;;;;;;;3.00;2.30;;;10.40;99.90;;;;;;5106307;27;20505;-81
2022/01/18 12:21:36;;;;;;;5.23;2.87;;;10.30;99.90;;;;;;5104042;28;20444;-82
2022/01/18 12:24:16;;;;;;;7.00;3.20;;;10.30;99.90;;;;;;5106891;28;20462;-81
2022/01/18 12:26:47;;;;;;;4.20;2.83;;;10.20;99.90;;;;;;5096948;27;20510;-82
2022/01/18 12:29:22;;;;;;;5.17;2.30;;;10.20;99.90;;;;;;5097542;28;20470;-82
2022/01/18 12:35:06;;;;;;;6.40;2.57;;;10.30;99.90;;;;;;5093674;28;20483;-81
2022/01/18 12:37:44;;;;;;;4.50;1.70;;;10.30;99.90;;;;;;5101979;27;20460;-82
2022/01/18 12:40:35;;;;;;;4.40;2.33;;;10.30;99.90;;;;;;5088567;27;20989;-81
2022/01/18 12:45:59;;;;;;;3.10;1.87;;;10.20;99.90;;;;;;5095712;28;20479;-80
2022/01/18 12:48:28;;;;;;;3.93;2.20;;;10.20;99.90;;;;;;5097738;28;20576;-80
2022/01/18 12:50:58;;;;;;;5.30;2.87;;;10.20;99.90;;;;;;5096830;28;20534;-80
2022/01/18 12:53:29;;;;;;;3.63;2.93;;;10.10;99.90;;;;;;5097531;28;20585;-81
2022/01/18 12:55:59;;;;;;;6.30;4.07;;;10.20;99.90;;;;;;5100493;28;20571;-81
2022/01/18 12:58:30;;;;;;;5.10;2.53;;;10.10;99.90;;;;;;5103014;27;20460;-80
2022/01/18 13:01:02;;;;;;;3.97;2.60;;;10.10;99.90;;;;;;5096389;28;20940;-82
2022/01/18 13:03:33;;;;;;;3.37;2.47;;;10.10;99.90;;;;;;5110552;27;20456;-81
2022/01/18 13:06:04;;;;;;;5.27;2.80;;;10.10;99.90;;;;;;5111839;27;20465;-80
2022/01/18 13:08:50;;;;;;;4.03;2.80;;;10.10;99.90;;;;;;5103318;28;20570;-82
2022/01/18 13:11:20;;;;;;;3.70;2.03;;;10.00;99.90;;;;;;5110756;27;20467;-82
2022/01/18 13:13:55;;;;;;;5.87;2.73;;;10.00;99.90;;;;;;5107918;28;20445;-84
2022/01/18 13:25:04;;;;;;;3.53;2.17;;;10.00;99.90;;;;;;5105793;27;20562;-81
2022/01/18 13:27:38;;;;;;;5.07;2.50;;;10.10;99.90;;;;;;5098965;27;20898;-79
2022/01/18 13:30:16;;;;;;;6.63;2.13;;;10.10;99.90;;;;;;5103578;27;20460;-78
2022/01/18 13:32:47;;;;;;;3.17;2.70;;;10.10;99.90;;;;;;5105813;27;20482;-79
2022/01/18 13:35:19;;;;;;;2.00;1.50;;;10.20;99.90;;;;;;5102022;27;20893;-79
2022/01/18 13:37:48;;;;;;;3.37;2.27;;;10.20;99.90;;;;;;5095562;27;20456;-79
2022/01/18 13:40:18;;;;;;;3.23;1.60;;;10.30;99.90;;;;;;5101466;28;20469;-80
2022/01/18 13:42:48;;;;;;;3.07;2.23;;;10.40;99.90;;;;;;5105436;28;20552;-79
2022/01/18 13:45:19;;;;;;;4.20;1.80;;;10.50;99.90;;;;;;5104628;28;20559;-82
2022/01/18 13:47:52;;;;;;;3.00;1.83;;;10.50;99.90;;;;;;5098778;27;20233;-84
2022/01/18 13:50:50;;;;;;;3.93;2.17;;;10.50;99.90;;;;;;5119009;27;20955;-82
2022/01/18 13:53:21;;;;;;;3.70;2.50;;;10.50;99.90;;;;;;5113222;27;20951;-83
2022/01/18 13:55:54;;;;;;;4.80;3.03;;;10.50;99.90;;;;;;5114528;27;20726;-82
2022/01/18 13:58:25;;;;;;;4.50;2.43;;;10.50;99.90;;;;;;5103663;27;20568;-82
2022/01/18 14:01:06;;;;;;;4.23;2.60;;;10.50;99.90;;;;;;5107687;27;20496;-82
2022/01/18 14:03:38;;;;;;;3.80;2.53;;;10.40;99.90;;;;;;5113784;28;20978;-81
2022/01/18 14:06:10;;;;;;;3.50;2.23;;;10.40;99.90;;;;;;5108264;27;20476;-81
2022/01/18 14:08:45;;;;;;;4.10;2.03;;;10.30;99.90;;;;;;5104605;27;20480;-82
2022/01/18 14:11:18;;;;;;;3.27;2.20;;;10.20;99.90;;;;;;5106192;27;20455;-82
2022/01/18 14:13:48;;;;;;;4.60;2.07;;;10.20;99.90;;;;;;5102875;27;20460;-82
2022/01/18 14:16:24;;;;;;;2.93;1.60;;;10.20;99.90;;;;;;5105650;28;20515;-81
2022/01/18 14:18:55;;;;;;;5.00;2.07;;;10.10;99.90;;;;;;5104635;27;20450;-82
2022/01/18 14:21:26;;;;;;;3.13;1.47;;;10.10;99.90;;;;;;5109352;27;20444;-83